< Cyclone 198303 1983 Season Cyclone 198305 >
Cyclone 198304 (KEN)
General InformationTrack Information on Google MapsList of All Images || ResourceGoogle EarthGE AnimationAtom FeedGeoJSON
Detalied Best Track (Time Zone = UTC)
Year Month Day Hour Lat. Long. Pressure (hPa) Wind (kt) Class Image Chart
1983 2 28 03 -13.0 124.9 994 0 0 Image --
1983 2 28 06 -13.1 124.8 992 0 0 Image --
1983 2 28 09 -13.1 124.8 990 0 0 Image --
1983 2 28 12 -13.2 124.7 988 0 0 Image --
1983 2 28 15 -13.2 124.7 986 0 0 Image --
1983 2 28 18 -13.3 124.6 984 0 0 Image --
1983 2 28 21 -13.3 124.6 982 0 0 Image --
1983 3 1 00 -13.4 124.5 980 0 0 Image --
1983 3 1 03 -13.7 124.4 978 0 0 Image --
1983 3 1 06 -14.0 124.5 977 0 0 Image --
1983 3 1 09 -14.1 124.5 976 0 0 Image --
1983 3 1 12 -14.2 124.5 975 0 0 Image --
1983 3 1 15 -14.3 124.5 974 0 0 Image --
1983 3 1 18 -14.4 124.5 973 0 0 Image --
1983 3 1 21 -14.5 124.5 972 0 0 Image --
1983 3 2 00 -14.7 124.5 970 0 0 Image --
1983 3 2 03 -14.9 124.5 970 0 0 Image --
1983 3 2 06 -15.3 124.5 970 0 0 Image --
1983 3 2 09 -15.6 124.5 970 0 0 Image --
1983 3 2 12 -15.8 124.6 970 0 0 Image --
1983 3 2 15 -16.0 124.6 973 0 0 Image --
1983 3 2 18 -16.2 124.7 976 0 0 Image --
1983 3 2 21 -16.2 124.8 982 0 0 Image --
1983 3 3 00 -16.3 125.2 988 0 0 Image --
1983 3 3 03 -16.4 125.5 990 0 0 Image --
1983 3 3 06 -16.7 125.8 991 0 0 Image --
1983 3 3 09 -17.0 126.0 991 0 0 Image --
1983 3 3 12 -17.6 126.3 992 0 0 Image --
1983 3 3 15 -17.9 126.7 992 0 0 Image --
1983 3 3 18 -18.3 126.6 992 0 0 Image --
1983 3 3 21 -18.6 126.6 993 0 0 Image --
1983 3 4 00 -18.8 126.6 994 0 0 Image --
1983 3 4 03 -19.3 126.5 994 0 0 Image --
1983 3 4 06 -19.6 126.4 994 0 0 Image --
1983 3 4 09 -19.9 126.4 994 0 0 Image --
1983 3 4 12 -20.3 126.3 994 0 0 Image --
1983 3 4 15 -20.6 126.2 994 0 0 Image --
1983 3 4 18 -20.9 126.0 995 0 0 Image --
1983 3 4 21 -21.1 125.8 995 0 0 Image --
1983 3 5 00 -21.5 125.5 995 0 0 Image --
1983 3 5 03 -21.8 125.3 995 0 0 Image --
1983 3 5 06 -22.4 124.8 995 0 0 Image --
1983 3 5 09 -22.7 124.4 996 0 0 Image --
1983 3 5 12 -23.1 123.9 997 0 0 Image --
1983 3 5 15 -24.0 124.1 998 0 0 Image --
1983 3 5 18 -24.9 125.3 999 0 0 Image --
1983 3 5 21 -25.3 126.1 1000 0 0 Image --
1983 3 6 00 -25.7 126.8 1001 0 0 Image --
1983 3 6 03 -26.2 127.2 1002 0 0 Image --
1983 3 6 06 -26.6 127.5 1003 0 0 Image --
1983 3 6 09 -26.9 128.9 1004 0 0 Image --
< Cyclone 198303 1983 Season Cyclone 198305 >

Help